sensor_id;sensor_type;location;lat;lon;timestamp;P1;durP1;ratioP1;P2;durP2;ratioP2
14408;SDS011;7289;50.706;4.992;2023-03-01T00:01:34;0.40;;;0.40;;
14408;SDS011;7289;50.706;4.992;2023-03-01T00:04:03;0.33;;;0.33;;
14408;SDS011;7289;50.706;4.992;2023-03-01T00:06:31;0.60;;;0.60;;
14408;SDS011;7289;50.706;4.992;2023-03-01T00:08:59;0.40;;;0.40;;
14408;SDS011;7289;50.706;4.992;2023-03-01T00:11:28;0.40;;;0.40;;
14408;SDS011;7289;50.706;4.992;2023-03-01T00:13:59;0.40;;;0.40;;
14408;SDS011;7289;50.706;4.992;2023-03-01T00:16:32;0.33;;;0.33;;
14408;SDS011;7289;50.706;4.992;2023-03-01T00:19:02;0.40;;;0.40;;
14408;SDS011;7289;50.706;4.992;2023-03-01T00:21:30;0.40;;;0.40;;
14408;SDS011;7289;50.706;4.992;2023-03-01T00:24:00;0.40;;;0.40;;
14408;SDS011;7289;50.706;4.992;2023-03-01T00:26:28;0.40;;;0.40;;
14408;SDS011;7289;50.706;4.992;2023-03-01T00:28:59;0.40;;;0.40;;
14408;SDS011;7289;50.706;4.992;2023-03-01T00:31:29;0.43;;;0.43;;
14408;SDS011;7289;50.706;4.992;2023-03-01T00:33:58;0.40;;;0.40;;
14408;SDS011;7289;50.706;4.992;2023-03-01T00:36:29;0.40;;;0.40;;
14408;SDS011;7289;50.706;4.992;2023-03-01T00:39:00;0.47;;;0.47;;
14408;SDS011;7289;50.706;4.992;2023-03-01T00:41:29;0.40;;;0.40;;
14408;SDS011;7289;50.706;4.992;2023-03-01T00:43:59;0.50;;;0.50;;
14408;SDS011;7289;50.706;4.992;2023-03-01T00:46:27;0.50;;;0.50;;
14408;SDS011;7289;50.706;4.992;2023-03-01T00:48:57;0.50;;;0.50;;
14408;SDS011;7289;50.706;4.992;2023-03-01T00:51:28;0.50;;;0.50;;
14408;SDS011;7289;50.706;4.992;2023-03-01T00:53:58;0.50;;;0.50;;
14408;SDS011;7289;50.706;4.992;2023-03-01T00:56:28;0.50;;;0.50;;
14408;SDS011;7289;50.706;4.992;2023-03-01T00:58:59;0.40;;;0.40;;
14408;SDS011;7289;50.706;4.992;2023-03-01T01:01:28;0.40;;;0.40;;
14408;SDS011;7289;50.706;4.992;2023-03-01T01:03:59;0.40;;;0.40;;
14408;SDS011;7289;50.706;4.992;2023-03-01T01:06:30;0.50;;;0.50;;
14408;SDS011;7289;50.706;4.992;2023-03-01T01:09:00;0.60;;;0.60;;
14408;SDS011;7289;50.706;4.992;2023-03-01T01:11:31;0.40;;;0.40;;
14408;SDS011;7289;50.706;4.992;2023-03-01T01:14:01;0.50;;;0.50;;
14408;SDS011;7289;50.706;4.992;2023-03-01T01:16:29;0.50;;;0.50;;
14408;SDS011;7289;50.706;4.992;2023-03-01T01:18:58;0.50;;;0.50;;
14408;SDS011;7289;50.706;4.992;2023-03-01T01:21:27;0.47;;;0.47;;
14408;SDS011;7289;50.706;4.992;2023-03-01T01:23:56;0.50;;;0.50;;
14408;SDS011;7289;50.706;4.992;2023-03-01T01:26:26;0.40;;;0.40;;
14408;SDS011;7289;50.706;4.992;2023-03-01T01:28:56;0.50;;;0.50;;
14408;SDS011;7289;50.706;4.992;2023-03-01T01:31:27;0.40;;;0.40;;
14408;SDS011;7289;50.706;4.992;2023-03-01T01:33:56;0.47;;;0.47;;
14408;SDS011;7289;50.706;4.992;2023-03-01T01:36:26;0.40;;;0.40;;
14408;SDS011;7289;50.706;4.992;2023-03-01T01:38:56;0.40;;;0.40;;
14408;SDS011;7289;50.706;4.992;2023-03-01T01:41:25;0.40;;;0.40;;
14408;SDS011;7289;50.706;4.992;2023-03-01T01:44:11;0.50;;;0.50;;
14408;SDS011;7289;50.706;4.992;2023-03-01T01:46:47;0.50;;;0.50;;
14408;SDS011;7289;50.706;4.992;2023-03-01T01:49:25;0.50;;;0.50;;
14408;SDS011;7289;50.706;4.992;2023-03-01T01:52:00;0.60;;;0.60;;
14408;SDS011;7289;50.706;4.992;2023-03-01T01:54:36;0.50;;;0.50;;
14408;SDS011;7289;50.706;4.992;2023-03-01T01:57:10;0.40;;;0.40;;
14408;SDS011;7289;50.706;4.992;2023-03-01T01:59:41;0.40;;;0.40;;
14408;SDS011;7289;50.706;4.992;2023-03-01T02:02:12;0.50;;;0.50;;
14408;SDS011;7289;50.706;4.992;2023-03-01T02:04:42;0.40;;;0.40;;
14408;SDS011;7289;50.706;4.992;2023-03-01T02:07:13;0.50;;;0.50;;
14408;SDS011;7289;50.706;4.992;2023-03-01T02:09:44;0.40;;;0.40;;
14408;SDS011;7289;50.706;4.992;2023-03-01T02:12:14;0.50;;;0.50;;
14408;SDS011;7289;50.706;4.992;2023-03-01T02:14:45;0.40;;;0.40;;
14408;SDS011;7289;50.706;4.992;2023-03-01T02:17:16;0.50;;;0.50;;
14408;SDS011;7289;50.706;4.992;2023-03-01T02:19:49;0.40;;;0.40;;
14408;SDS011;7289;50.706;4.992;2023-03-01T02:22:27;0.40;;;0.40;;
14408;SDS011;7289;50.706;4.992;2023-03-01T02:25:02;0.50;;;0.50;;
14408;SDS011;7289;50.706;4.992;2023-03-01T02:27:40;0.50;;;0.50;;
14408;SDS011;7289;50.706;4.992;2023-03-01T02:30:18;0.40;;;0.40;;
14408;SDS011;7289;50.706;4.992;2023-03-01T02:32:48;0.40;;;0.40;;
14408;SDS011;7289;50.706;4.992;2023-03-01T02:35:17;0.43;;;0.43;;
14408;SDS011;7289;50.706;4.992;2023-03-01T02:37:47;0.50;;;0.50;;
14408;SDS011;7289;50.706;4.992;2023-03-01T02:40:16;0.50;;;0.50;;
14408;SDS011;7289;50.706;4.992;2023-03-01T02:42:50;0.50;;;0.50;;
14408;SDS011;7289;50.706;4.992;2023-03-01T02:45:25;0.50;;;0.50;;
14408;SDS011;7289;50.706;4.992;2023-03-01T02:47:54;0.60;;;0.60;;
14408;SDS011;7289;50.706;4.992;2023-03-01T02:50:38;0.50;;;0.50;;
14408;SDS011;7289;50.706;4.992;2023-03-01T02:53:21;0.40;;;0.40;;
14408;SDS011;7289;50.706;4.992;2023-03-01T02:55:55;0.50;;;0.50;;
14408;SDS011;7289;50.706;4.992;2023-03-01T02:58:24;0.50;;;0.50;;
14408;SDS011;7289;50.706;4.992;2023-03-01T03:00:54;0.40;;;0.40;;
14408;SDS011;7289;50.706;4.992;2023-03-01T03:03:25;0.50;;;0.50;;
14408;SDS011;7289;50.706;4.992;2023-03-01T03:05:53;0.60;;;0.60;;
14408;SDS011;7289;50.706;4.992;2023-03-01T03:08:22;0.33;;;0.33;;
14408;SDS011;7289;50.706;4.992;2023-03-01T03:10:51;0.40;;;0.40;;
14408;SDS011;7289;50.706;4.992;2023-03-01T03:13:21;0.50;;;0.50;;
14408;SDS011;7289;50.706;4.992;2023-03-01T03:15:56;0.40;;;0.40;;
14408;SDS011;7289;50.706;4.992;2023-03-01T03:18:25;0.50;;;0.50;;
14408;SDS011;7289;50.706;4.992;2023-03-01T03:20:53;0.40;;;0.40;;
14408;SDS011;7289;50.706;4.992;2023-03-01T03:23:22;0.50;;;0.50;;
14408;SDS011;7289;50.706;4.992;2023-03-01T03:25:51;0.70;;;0.70;;
14408;SDS011;7289;50.706;4.992;2023-03-01T03:28:19;0.70;;;0.70;;
14408;SDS011;7289;50.706;4.992;2023-03-01T03:30:48;0.43;;;0.43;;
14408;SDS011;7289;50.706;4.992;2023-03-01T03:33:17;0.50;;;0.50;;
14408;SDS011;7289;50.706;4.992;2023-03-01T03:35:47;0.60;;;0.60;;
14408;SDS011;7289;50.706;4.992;2023-03-01T03:38:18;0.40;;;0.40;;
14408;SDS011;7289;50.706;4.992;2023-03-01T03:40:49;0.67;;;0.67;;
14408;SDS011;7289;50.706;4.992;2023-03-01T03:43:19;0.50;;;0.50;;
14408;SDS011;7289;50.706;4.992;2023-03-01T03:45:49;0.50;;;0.50;;
14408;SDS011;7289;50.706;4.992;2023-03-01T03:48:20;0.50;;;0.50;;
14408;SDS011;7289;50.706;4.992;2023-03-01T03:50:49;0.50;;;0.50;;
14408;SDS011;7289;50.706;4.992;2023-03-01T03:53:19;0.50;;;0.50;;
14408;SDS011;7289;50.706;4.992;2023-03-01T03:55:49;0.47;;;0.47;;
14408;SDS011;7289;50.706;4.992;2023-03-01T03:58:18;0.50;;;0.50;;
14408;SDS011;7289;50.706;4.992;2023-03-01T04:00:48;0.57;;;0.57;;
14408;SDS011;7289;50.706;4.992;2023-03-01T04:03:17;0.40;;;0.40;;
14408;SDS011;7289;50.706;4.992;2023-03-01T04:05:48;0.47;;;0.47;;
14408;SDS011;7289;50.706;4.992;2023-03-01T04:08:18;0.50;;;0.50;;
14408;SDS011;7289;50.706;4.992;2023-03-01T04:10:48;0.50;;;0.50;;
14408;SDS011;7289;50.706;4.992;2023-03-01T04:13:18;0.50;;;0.50;;
14408;SDS011;7289;50.706;4.992;2023-03-01T04:15:48;0.40;;;0.40;;
14408;SDS011;7289;50.706;4.992;2023-03-01T04:18:17;0.53;;;0.53;;
14408;SDS011;7289;50.706;4.992;2023-03-01T04:20:48;0.60;;;0.60;;
14408;SDS011;7289;50.706;4.992;2023-03-01T04:23:19;0.50;;;0.50;;
14408;SDS011;7289;50.706;4.992;2023-03-01T04:25:48;0.50;;;0.50;;
14408;SDS011;7289;50.706;4.992;2023-03-01T04:28:20;0.40;;;0.40;;
14408;SDS011;7289;50.706;4.992;2023-03-01T04:30:51;0.47;;;0.47;;
14408;SDS011;7289;50.706;4.992;2023-03-01T04:33:21;0.50;;;0.50;;
14408;SDS011;7289;50.706;4.992;2023-03-01T04:35:51;0.60;;;0.60;;
14408;SDS011;7289;50.706;4.992;2023-03-01T04:38:19;0.50;;;0.50;;
14408;SDS011;7289;50.706;4.992;2023-03-01T04:40:48;0.50;;;0.50;;
14408;SDS011;7289;50.706;4.992;2023-03-01T04:43:16;0.40;;;0.40;;
14408;SDS011;7289;50.706;4.992;2023-03-01T04:45:45;0.50;;;0.50;;
14408;SDS011;7289;50.706;4.992;2023-03-01T04:48:13;0.50;;;0.50;;
14408;SDS011;7289;50.706;4.992;2023-03-01T04:50:43;0.53;;;0.53;;
14408;SDS011;7289;50.706;4.992;2023-03-01T04:53:11;0.50;;;0.50;;
14408;SDS011;7289;50.706;4.992;2023-03-01T04:55:39;0.57;;;0.57;;
14408;SDS011;7289;50.706;4.992;2023-03-01T04:58:08;0.73;;;0.73;;
14408;SDS011;7289;50.706;4.992;2023-03-01T05:00:36;0.70;;;0.70;;
14408;SDS011;7289;50.706;4.992;2023-03-01T05:03:04;0.50;;;0.50;;
14408;SDS011;7289;50.706;4.992;2023-03-01T05:05:33;0.50;;;0.50;;
14408;SDS011;7289;50.706;4.992;2023-03-01T05:08:05;0.50;;;0.50;;
14408;SDS011;7289;50.706;4.992;2023-03-01T05:10:35;0.50;;;0.50;;
14408;SDS011;7289;50.706;4.992;2023-03-01T05:13:05;0.50;;;0.50;;
14408;SDS011;7289;50.706;4.992;2023-03-01T05:15:34;0.50;;;0.50;;
14408;SDS011;7289;50.706;4.992;2023-03-01T05:18:03;0.50;;;0.50;;
14408;SDS011;7289;50.706;4.992;2023-03-01T05:20:37;0.50;;;0.50;;
14408;SDS011;7289;50.706;4.992;2023-03-01T05:23:07;0.50;;;0.50;;
14408;SDS011;7289;50.706;4.992;2023-03-01T05:25:35;0.50;;;0.50;;
14408;SDS011;7289;50.706;4.992;2023-03-01T05:28:07;0.50;;;0.50;;
14408;SDS011;7289;50.706;4.992;2023-03-01T05:30:39;0.50;;;0.50;;
14408;SDS011;7289;50.706;4.992;2023-03-01T05:33:07;0.50;;;0.50;;
14408;SDS011;7289;50.706;4.992;2023-03-01T05:35:40;0.50;;;0.50;;
14408;SDS011;7289;50.706;4.992;2023-03-01T05:38:11;0.50;;;0.50;;
14408;SDS011;7289;50.706;4.992;2023-03-01T05:40:40;0.50;;;0.50;;
14408;SDS011;7289;50.706;4.992;2023-03-01T05:43:11;0.50;;;0.50;;
14408;SDS011;7289;50.706;4.992;2023-03-01T05:45:40;0.50;;;0.50;;
14408;SDS011;7289;50.706;4.992;2023-03-01T05:48:09;0.70;;;0.70;;
14408;SDS011;7289;50.706;4.992;2023-03-01T05:50:39;0.50;;;0.50;;
14408;SDS011;7289;50.706;4.992;2023-03-01T05:53:11;0.50;;;0.50;;
14408;SDS011;7289;50.706;4.992;2023-03-01T05:55:41;0.70;;;0.70;;
14408;SDS011;7289;50.706;4.992;2023-03-01T05:58:10;0.60;;;0.60;;
14408;SDS011;7289;50.706;4.992;2023-03-01T06:00:41;0.50;;;0.50;;
14408;SDS011;7289;50.706;4.992;2023-03-01T06:03:12;0.70;;;0.70;;
14408;SDS011;7289;50.706;4.992;2023-03-01T06:05:41;0.50;;;0.50;;
14408;SDS011;7289;50.706;4.992;2023-03-01T06:08:11;0.50;;;0.50;;
14408;SDS011;7289;50.706;4.992;2023-03-01T06:10:40;0.70;;;0.70;;
14408;SDS011;7289;50.706;4.992;2023-03-01T06:13:08;0.50;;;0.50;;
14408;SDS011;7289;50.706;4.992;2023-03-01T06:15:37;0.60;;;0.60;;
14408;SDS011;7289;50.706;4.992;2023-03-01T06:18:05;0.50;;;0.50;;
14408;SDS011;7289;50.706;4.992;2023-03-01T06:20:33;0.50;;;0.50;;
14408;SDS011;7289;50.706;4.992;2023-03-01T06:23:02;0.50;;;0.50;;
14408;SDS011;7289;50.706;4.992;2023-03-01T06:25:31;0.50;;;0.50;;
14408;SDS011;7289;50.706;4.992;2023-03-01T06:28:00;0.50;;;0.50;;
14408;SDS011;7289;50.706;4.992;2023-03-01T06:30:28;0.53;;;0.53;;
14408;SDS011;7289;50.706;4.992;2023-03-01T06:32:57;0.50;;;0.50;;
14408;SDS011;7289;50.706;4.992;2023-03-01T06:35:29;0.50;;;0.50;;
14408;SDS011;7289;50.706;4.992;2023-03-01T06:37:59;0.50;;;0.50;;
14408;SDS011;7289;50.706;4.992;2023-03-01T06:40:28;0.60;;;0.60;;
14408;SDS011;7289;50.706;4.992;2023-03-01T06:42:59;0.60;;;0.60;;
14408;SDS011;7289;50.706;4.992;2023-03-01T06:45:27;0.53;;;0.53;;
14408;SDS011;7289;50.706;4.992;2023-03-01T06:48:02;0.60;;;0.60;;
14408;SDS011;7289;50.706;4.992;2023-03-01T06:50:31;0.50;;;0.50;;
14408;SDS011;7289;50.706;4.992;2023-03-01T06:53:00;0.60;;;0.60;;
14408;SDS011;7289;50.706;4.992;2023-03-01T06:55:29;0.60;;;0.60;;
14408;SDS011;7289;50.706;4.992;2023-03-01T06:57:59;0.50;;;0.50;;
14408;SDS011;7289;50.706;4.992;2023-03-01T07:00:28;0.53;;;0.53;;
14408;SDS011;7289;50.706;4.992;2023-03-01T07:02:58;0.50;;;0.50;;
14408;SDS011;7289;50.706;4.992;2023-03-01T07:05:28;0.57;;;0.57;;
14408;SDS011;7289;50.706;4.992;2023-03-01T07:07:57;0.50;;;0.50;;
14408;SDS011;7289;50.706;4.992;2023-03-01T07:10:26;0.50;;;0.50;;
14408;SDS011;7289;50.706;4.992;2023-03-01T07:12:55;0.50;;;0.50;;
14408;SDS011;7289;50.706;4.992;2023-03-01T07:15:26;0.50;;;0.50;;
14408;SDS011;7289;50.706;4.992;2023-03-01T07:17:55;0.50;;;0.50;;
14408;SDS011;7289;50.706;4.992;2023-03-01T07:20:24;0.50;;;0.50;;
14408;SDS011;7289;50.706;4.992;2023-03-01T07:22:53;0.40;;;0.40;;
14408;SDS011;7289;50.706;4.992;2023-03-01T07:25:22;0.50;;;0.50;;
14408;SDS011;7289;50.706;4.992;2023-03-01T07:27:51;0.50;;;0.50;;
14408;SDS011;7289;50.706;4.992;2023-03-01T07:30:20;0.50;;;0.50;;
14408;SDS011;7289;50.706;4.992;2023-03-01T07:32:53;0.70;;;0.70;;
14408;SDS011;7289;50.706;4.992;2023-03-01T07:35:23;0.50;;;0.50;;
14408;SDS011;7289;50.706;4.992;2023-03-01T07:37:53;0.50;;;0.50;;
14408;SDS011;7289;50.706;4.992;2023-03-01T07:40:21;0.50;;;0.50;;
14408;SDS011;7289;50.706;4.992;2023-03-01T07:42:54;0.60;;;0.60;;
14408;SDS011;7289;50.706;4.992;2023-03-01T07:45:23;0.50;;;0.50;;
14408;SDS011;7289;50.706;4.992;2023-03-01T07:47:53;0.40;;;0.40;;
14408;SDS011;7289;50.706;4.992;2023-03-01T07:50:22;0.47;;;0.47;;
14408;SDS011;7289;50.706;4.992;2023-03-01T07:52:50;0.40;;;0.40;;
14408;SDS011;7289;50.706;4.992;2023-03-01T07:55:18;0.50;;;0.50;;
14408;SDS011;7289;50.706;4.992;2023-03-01T07:57:47;0.50;;;0.50;;
14408;SDS011;7289;50.706;4.992;2023-03-01T08:00:16;0.50;;;0.50;;
14408;SDS011;7289;50.706;4.992;2023-03-01T08:02:44;0.40;;;0.40;;
14408;SDS011;7289;50.706;4.992;2023-03-01T08:05:14;0.40;;;0.40;;
14408;SDS011;7289;50.706;4.992;2023-03-01T08:07:43;0.50;;;0.50;;
14408;SDS011;7289;50.706;4.992;2023-03-01T08:10:11;0.50;;;0.50;;
14408;SDS011;7289;50.706;4.992;2023-03-01T08:12:40;0.40;;;0.40;;
14408;SDS011;7289;50.706;4.992;2023-03-01T08:15:08;0.60;;;0.60;;
14408;SDS011;7289;50.706;4.992;2023-03-01T08:17:37;0.80;;;0.80;;
14408;SDS011;7289;50.706;4.992;2023-03-01T08:20:06;0.50;;;0.50;;
14408;SDS011;7289;50.706;4.992;2023-03-01T08:22:40;0.50;;;0.50;;
14408;SDS011;7289;50.706;4.992;2023-03-01T08:25:08;0.40;;;0.40;;
14408;SDS011;7289;50.706;4.992;2023-03-01T08:27:37;0.40;;;0.40;;
14408;SDS011;7289;50.706;4.992;2023-03-01T08:30:05;0.40;;;0.40;;
14408;SDS011;7289;50.706;4.992;2023-03-01T08:32:35;0.40;;;0.40;;
14408;SDS011;7289;50.706;4.992;2023-03-01T08:35:05;0.40;;;0.40;;
14408;SDS011;7289;50.706;4.992;2023-03-01T08:37:34;0.40;;;0.40;;
14408;SDS011;7289;50.706;4.992;2023-03-01T08:40:04;0.40;;;0.40;;
14408;SDS011;7289;50.706;4.992;2023-03-01T08:42:36;0.40;;;0.40;;
14408;SDS011;7289;50.706;4.992;2023-03-01T08:45:05;0.40;;;0.40;;
14408;SDS011;7289;50.706;4.992;2023-03-01T08:47:34;0.50;;;0.50;;
14408;SDS011;7289;50.706;4.992;2023-03-01T08:50:02;0.40;;;0.40;;
14408;SDS011;7289;50.706;4.992;2023-03-01T08:52:31;0.40;;;0.40;;
14408;SDS011;7289;50.706;4.992;2023-03-01T08:55:00;0.40;;;0.40;;
14408;SDS011;7289;50.706;4.992;2023-03-01T08:57:30;0.40;;;0.40;;
14408;SDS011;7289;50.706;4.992;2023-03-01T08:59:58;0.40;;;0.40;;
14408;SDS011;7289;50.706;4.992;2023-03-01T09:02:27;0.30;;;0.30;;
14408;SDS011;7289;50.706;4.992;2023-03-01T09:04:55;0.40;;;0.40;;
14408;SDS011;7289;50.706;4.992;2023-03-01T09:07:24;0.40;;;0.40;;
14408;SDS011;7289;50.706;4.992;2023-03-01T09:09:54;0.40;;;0.40;;
14408;SDS011;7289;50.706;4.992;2023-03-01T09:12:23;0.40;;;0.40;;
14408;SDS011;7289;50.706;4.992;2023-03-01T09:14:56;0.40;;;0.40;;
14408;SDS011;7289;50.706;4.992;2023-03-01T09:17:25;0.33;;;0.33;;
14408;SDS011;7289;50.706;4.992;2023-03-01T09:19:53;0.40;;;0.40;;
14408;SDS011;7289;50.706;4.992;2023-03-01T09:22:22;0.37;;;0.37;;
14408;SDS011;7289;50.706;4.992;2023-03-01T09:24:51;0.40;;;0.40;;
14408;SDS011;7289;50.706;4.992;2023-03-01T09:27:19;0.40;;;0.40;;
14408;SDS011;7289;50.706;4.992;2023-03-01T09:29:51;0.40;;;0.40;;
14408;SDS011;7289;50.706;4.992;2023-03-01T09:32:21;0.40;;;0.40;;
14408;SDS011;7289;50.706;4.992;2023-03-01T09:34:52;0.40;;;0.40;;
14408;SDS011;7289;50.706;4.992;2023-03-01T09:37:31;0.40;;;0.40;;
14408;SDS011;7289;50.706;4.992;2023-03-01T09:40:00;0.30;;;0.30;;
14408;SDS011;7289;50.706;4.992;2023-03-01T09:42:30;0.40;;;0.40;;
14408;SDS011;7289;50.706;4.992;2023-03-01T09:45:02;0.30;;;0.30;;
14408;SDS011;7289;50.706;4.992;2023-03-01T09:47:34;0.40;;;0.40;;
14408;SDS011;7289;50.706;4.992;2023-03-01T09:50:04;0.33;;;0.33;;
14408;SDS011;7289;50.706;4.992;2023-03-01T09:52:40;0.30;;;0.30;;
14408;SDS011;7289;50.706;4.992;2023-03-01T09:55:10;0.40;;;0.40;;
14408;SDS011;7289;50.706;4.992;2023-03-01T09:57:42;0.40;;;0.40;;
14408;SDS011;7289;50.706;4.992;2023-03-01T10:00:27;0.40;;;0.40;;
14408;SDS011;7289;50.706;4.992;2023-03-01T10:03:02;0.40;;;0.40;;
14408;SDS011;7289;50.706;4.992;2023-03-01T10:05:45;0.40;;;0.40;;
14408;SDS011;7289;50.706;4.992;2023-03-01T10:08:26;0.30;;;0.30;;
14408;SDS011;7289;50.706;4.992;2023-03-01T10:11:03;0.40;;;0.40;;
14408;SDS011;7289;50.706;4.992;2023-03-01T10:13:34;0.30;;;0.30;;
14408;SDS011;7289;50.706;4.992;2023-03-01T10:16:10;0.30;;;0.30;;
14408;SDS011;7289;50.706;4.992;2023-03-01T10:18:45;0.30;;;0.30;;
14408;SDS011;7289;50.706;4.992;2023-03-01T10:21:19;0.30;;;0.30;;
14408;SDS011;7289;50.706;4.992;2023-03-01T10:23:49;0.30;;;0.30;;
14408;SDS011;7289;50.706;4.992;2023-03-01T10:29:18;0.20;;;0.20;;
14408;SDS011;7289;50.706;4.992;2023-03-01T10:31:52;0.30;;;0.30;;
14408;SDS011;7289;50.706;4.992;2023-03-01T10:34:27;0.30;;;0.30;;
14408;SDS011;7289;50.706;4.992;2023-03-01T10:36:57;0.30;;;0.30;;
14408;SDS011;7289;50.706;4.992;2023-03-01T10:39:29;0.30;;;0.30;;
14408;SDS011;7289;50.706;4.992;2023-03-01T10:41:59;0.30;;;0.30;;
14408;SDS011;7289;50.706;4.992;2023-03-01T10:44:36;0.30;;;0.30;;
14408;SDS011;7289;50.706;4.992;2023-03-01T10:47:11;0.30;;;0.30;;
14408;SDS011;7289;50.706;4.992;2023-03-01T10:49:53;0.30;;;0.30;;
14408;SDS011;7289;50.706;4.992;2023-03-01T10:52:24;0.30;;;0.30;;
14408;SDS011;7289;50.706;4.992;2023-03-01T10:54:55;0.30;;;0.30;;
14408;SDS011;7289;50.706;4.992;2023-03-01T10:57:29;0.30;;;0.30;;
14408;SDS011;7289;50.706;4.992;2023-03-01T11:00:19;0.30;;;0.30;;
14408;SDS011;7289;50.706;4.992;2023-03-01T11:02:50;0.30;;;0.30;;
14408;SDS011;7289;50.706;4.992;2023-03-01T11:05:32;0.30;;;0.30;;
14408;SDS011;7289;50.706;4.992;2023-03-01T11:08:01;0.30;;;0.30;;
14408;SDS011;7289;50.706;4.992;2023-03-01T11:10:32;0.30;;;0.30;;
14408;SDS011;7289;50.706;4.992;2023-03-01T11:13:06;0.30;;;0.30;;
14408;SDS011;7289;50.706;4.992;2023-03-01T11:15:35;0.30;;;0.30;;
14408;SDS011;7289;50.706;4.992;2023-03-01T11:18:04;0.30;;;0.30;;
14408;SDS011;7289;50.706;4.992;2023-03-01T11:20:46;0.30;;;0.30;;
14408;SDS011;7289;50.706;4.992;2023-03-01T11:23:15;0.20;;;0.20;;
14408;SDS011;7289;50.706;4.992;2023-03-01T11:25:47;0.30;;;0.30;;
14408;SDS011;7289;50.706;4.992;2023-03-01T11:28:19;0.20;;;0.20;;
14408;SDS011;7289;50.706;4.992;2023-03-01T11:30:50;0.20;;;0.20;;
14408;SDS011;7289;50.706;4.992;2023-03-01T11:33:35;0.20;;;0.20;;
14408;SDS011;7289;50.706;4.992;2023-03-01T11:36:11;0.30;;;0.30;;
14408;SDS011;7289;50.706;4.992;2023-03-01T11:38:44;0.20;;;0.20;;
14408;SDS011;7289;50.706;4.992;2023-03-01T11:41:14;0.23;;;0.23;;
14408;SDS011;7289;50.706;4.992;2023-03-01T11:43:47;0.20;;;0.20;;
14408;SDS011;7289;50.706;4.992;2023-03-01T11:46:28;0.20;;;0.20;;
14408;SDS011;7289;50.706;4.992;2023-03-01T11:49:13;0.23;;;0.23;;
14408;SDS011;7289;50.706;4.992;2023-03-01T11:52:03;0.20;;;0.20;;
14408;SDS011;7289;50.706;4.992;2023-03-01T11:54:44;0.20;;;0.20;;
14408;SDS011;7289;50.706;4.992;2023-03-01T11:57:31;0.20;;;0.20;;
14408;SDS011;7289;50.706;4.992;2023-03-01T12:00:14;0.20;;;0.20;;
14408;SDS011;7289;50.706;4.992;2023-03-01T12:06:04;0.30;;;0.30;;
14408;SDS011;7289;50.706;4.992;2023-03-01T12:08:56;0.20;;;0.20;;
14408;SDS011;7289;50.706;4.992;2023-03-01T12:11:36;0.27;;;0.27;;
14408;SDS011;7289;50.706;4.992;2023-03-01T12:14:23;0.30;;;0.30;;
14408;SDS011;7289;50.706;4.992;2023-03-01T12:17:04;0.30;;;0.30;;
14408;SDS011;7289;50.706;4.992;2023-03-01T12:19:52;0.20;;;0.20;;
14408;SDS011;7289;50.706;4.992;2023-03-01T12:22:30;0.30;;;0.30;;
14408;SDS011;7289;50.706;4.992;2023-03-01T12:28:03;0.20;;;0.20;;
14408;SDS011;7289;50.706;4.992;2023-03-01T12:30:46;0.20;;;0.20;;
14408;SDS011;7289;50.706;4.992;2023-03-01T12:33:40;0.20;;;0.20;;
14408;SDS011;7289;50.706;4.992;2023-03-01T12:39:19;0.20;;;0.20;;
14408;SDS011;7289;50.706;4.992;2023-03-01T12:42:03;0.30;;;0.30;;
14408;SDS011;7289;50.706;4.992;2023-03-01T12:44:46;0.20;;;0.20;;
14408;SDS011;7289;50.706;4.992;2023-03-01T12:47:33;0.30;;;0.30;;
14408;SDS011;7289;50.706;4.992;2023-03-01T12:50:14;0.20;;;0.20;;
14408;SDS011;7289;50.706;4.992;2023-03-01T12:52:48;0.20;;;0.20;;
14408;SDS011;7289;50.706;4.992;2023-03-01T12:55:24;0.20;;;0.20;;
14408;SDS011;7289;50.706;4.992;2023-03-01T12:58:00;0.20;;;0.20;;
14408;SDS011;7289;50.706;4.992;2023-03-01T13:00:37;0.20;;;0.20;;
14408;SDS011;7289;50.706;4.992;2023-03-01T13:03:14;0.23;;;0.23;;
14408;SDS011;7289;50.706;4.992;2023-03-01T13:05:56;0.20;;;0.20;;
14408;SDS011;7289;50.706;4.992;2023-03-01T13:08:35;0.20;;;0.20;;
14408;SDS011;7289;50.706;4.992;2023-03-01T13:11:11;0.20;;;0.20;;
14408;SDS011;7289;50.706;4.992;2023-03-01T13:13:47;0.20;;;0.20;;
14408;SDS011;7289;50.706;4.992;2023-03-01T13:16:22;0.20;;;0.20;;
14408;SDS011;7289;50.706;4.992;2023-03-01T13:19:10;0.20;;;0.20;;
14408;SDS011;7289;50.706;4.992;2023-03-01T13:21:42;0.20;;;0.20;;
14408;SDS011;7289;50.706;4.992;2023-03-01T13:27:09;0.20;;;0.20;;
14408;SDS011;7289;50.706;4.992;2023-03-01T13:29:53;0.20;;;0.20;;
14408;SDS011;7289;50.706;4.992;2023-03-01T13:32:24;0.20;;;0.20;;
14408;SDS011;7289;50.706;4.992;2023-03-01T13:41:05;0.20;;;0.20;;
14408;SDS011;7289;50.706;4.992;2023-03-01T13:43:35;0.20;;;0.20;;
14408;SDS011;7289;50.706;4.992;2023-03-01T13:46:09;0.20;;;0.20;;
14408;SDS011;7289;50.706;4.992;2023-03-01T13:48:40;0.20;;;0.20;;
14408;SDS011;7289;50.706;4.992;2023-03-01T13:51:10;0.20;;;0.20;;
14408;SDS011;7289;50.706;4.992;2023-03-01T13:53:40;0.20;;;0.20;;
14408;SDS011;7289;50.706;4.992;2023-03-01T13:56:12;0.20;;;0.20;;
14408;SDS011;7289;50.706;4.992;2023-03-01T13:58:49;0.30;;;0.30;;
14408;SDS011;7289;50.706;4.992;2023-03-01T14:01:25;0.20;;;0.20;;
14408;SDS011;7289;50.706;4.992;2023-03-01T14:03:56;0.20;;;0.20;;
14408;SDS011;7289;50.706;4.992;2023-03-01T14:06:26;0.20;;;0.20;;
14408;SDS011;7289;50.706;4.992;2023-03-01T14:09:04;0.20;;;0.20;;
14408;SDS011;7289;50.706;4.992;2023-03-01T14:11:51;0.20;;;0.20;;
14408;SDS011;7289;50.706;4.992;2023-03-01T14:14:32;0.20;;;0.20;;
14408;SDS011;7289;50.706;4.992;2023-03-01T14:17:14;0.20;;;0.20;;
14408;SDS011;7289;50.706;4.992;2023-03-01T14:20:07;0.20;;;0.20;;
14408;SDS011;7289;50.706;4.992;2023-03-01T14:22:40;0.20;;;0.20;;
14408;SDS011;7289;50.706;4.992;2023-03-01T14:25:17;0.20;;;0.20;;
14408;SDS011;7289;50.706;4.992;2023-03-01T14:27:56;0.20;;;0.20;;
14408;SDS011;7289;50.706;4.992;2023-03-01T14:30:33;0.20;;;0.20;;
14408;SDS011;7289;50.706;4.992;2023-03-01T14:33:06;0.20;;;0.20;;
14408;SDS011;7289;50.706;4.992;2023-03-01T14:35:51;0.20;;;0.20;;
14408;SDS011;7289;50.706;4.992;2023-03-01T14:38:28;0.20;;;0.20;;
14408;SDS011;7289;50.706;4.992;2023-03-01T14:41:02;0.20;;;0.20;;
14408;SDS011;7289;50.706;4.992;2023-03-01T14:43:32;0.20;;;0.20;;
14408;SDS011;7289;50.706;4.992;2023-03-01T14:46:01;0.20;;;0.20;;
14408;SDS011;7289;50.706;4.992;2023-03-01T14:48:31;0.20;;;0.20;;
14408;SDS011;7289;50.706;4.992;2023-03-01T14:51:00;0.20;;;0.20;;
14408;SDS011;7289;50.706;4.992;2023-03-01T14:53:29;0.20;;;0.20;;
14408;SDS011;7289;50.706;4.992;2023-03-01T14:56:15;0.20;;;0.20;;
14408;SDS011;7289;50.706;4.992;2023-03-01T14:58:45;0.20;;;0.20;;
14408;SDS011;7289;50.706;4.992;2023-03-01T15:01:15;0.20;;;0.20;;
14408;SDS011;7289;50.706;4.992;2023-03-01T15:03:47;0.20;;;0.20;;
14408;SDS011;7289;50.706;4.992;2023-03-01T15:06:18;0.20;;;0.20;;
14408;SDS011;7289;50.706;4.992;2023-03-01T15:08:48;0.20;;;0.20;;
14408;SDS011;7289;50.706;4.992;2023-03-01T15:11:20;0.20;;;0.20;;
14408;SDS011;7289;50.706;4.992;2023-03-01T15:13:51;0.20;;;0.20;;
14408;SDS011;7289;50.706;4.992;2023-03-01T15:16:21;0.20;;;0.20;;
14408;SDS011;7289;50.706;4.992;2023-03-01T15:18:53;0.43;;;0.43;;
14408;SDS011;7289;50.706;4.992;2023-03-01T15:21:24;0.20;;;0.20;;
14408;SDS011;7289;50.706;4.992;2023-03-01T15:23:57;0.20;;;0.20;;
14408;SDS011;7289;50.706;4.992;2023-03-01T15:26:31;0.20;;;0.20;;
14408;SDS011;7289;50.706;4.992;2023-03-01T15:29:02;0.20;;;0.20;;
14408;SDS011;7289;50.706;4.992;2023-03-01T15:31:31;0.20;;;0.20;;
14408;SDS011;7289;50.706;4.992;2023-03-01T15:34:10;0.20;;;0.20;;
14408;SDS011;7289;50.706;4.992;2023-03-01T15:36:50;0.20;;;0.20;;
14408;SDS011;7289;50.706;4.992;2023-03-01T15:39:30;0.20;;;0.20;;
14408;SDS011;7289;50.706;4.992;2023-03-01T15:42:06;0.20;;;0.20;;
14408;SDS011;7289;50.706;4.992;2023-03-01T15:44:38;0.20;;;0.20;;
14408;SDS011;7289;50.706;4.992;2023-03-01T15:47:22;0.20;;;0.20;;
14408;SDS011;7289;50.706;4.992;2023-03-01T15:49:56;0.20;;;0.20;;
14408;SDS011;7289;50.706;4.992;2023-03-01T15:52:27;0.20;;;0.20;;